sensor_id;sensor_type;location;lat;lon;timestamp;temperature;humidity
33564;DHT22;19894;48.452;11.494;2023-03-01T00:01:08;18.40;30.40
33564;DHT22;19894;48.452;11.494;2023-03-01T00:03:34;18.40;30.40
33564;DHT22;19894;48.452;11.494;2023-03-01T00:06:00;18.40;30.40
33564;DHT22;19894;48.452;11.494;2023-03-01T00:08:27;18.40;30.40
33564;DHT22;19894;48.452;11.494;2023-03-01T00:11:06;18.40;30.40
33564;DHT22;19894;48.452;11.494;2023-03-01T00:13:32;18.40;30.40
33564;DHT22;19894;48.452;11.494;2023-03-01T00:15:58;18.40;30.40
33564;DHT22;19894;48.452;11.494;2023-03-01T00:18:24;18.40;30.40
33564;DHT22;19894;48.452;11.494;2023-03-01T00:20:53;18.40;30.40
33564;DHT22;19894;48.452;11.494;2023-03-01T00:23:20;18.40;30.40
33564;DHT22;19894;48.452;11.494;2023-03-01T00:25:45;18.40;30.40
33564;DHT22;19894;48.452;11.494;2023-03-01T00:28:11;18.40;30.40
33564;DHT22;19894;48.452;11.494;2023-03-01T00:30:37;18.40;30.40
33564;DHT22;19894;48.452;11.494;2023-03-01T00:33:02;18.40;30.40
33564;DHT22;19894;48.452;11.494;2023-03-01T00:35:28;18.40;30.40
33564;DHT22;19894;48.452;11.494;2023-03-01T00:37:53;18.40;30.40
33564;DHT22;19894;48.452;11.494;2023-03-01T00:40:34;18.40;30.40
33564;DHT22;19894;48.452;11.494;2023-03-01T00:43:00;18.40;30.40
33564;DHT22;19894;48.452;11.494;2023-03-01T00:45:26;18.40;30.40
33564;DHT22;19894;48.452;11.494;2023-03-01T00:47:52;18.40;30.40
33564;DHT22;19894;48.452;11.494;2023-03-01T00:50:18;18.40;30.40
33564;DHT22;19894;48.452;11.494;2023-03-01T00:52:44;18.40;30.40
33564;DHT22;19894;48.452;11.494;2023-03-01T00:55:10;18.40;30.40
33564;DHT22;19894;48.452;11.494;2023-03-01T00:57:36;18.40;30.40
33564;DHT22;19894;48.452;11.494;2023-03-01T01:00:03;18.40;30.40
33564;DHT22;19894;48.452;11.494;2023-03-01T01:02:29;18.40;30.40
33564;DHT22;19894;48.452;11.494;2023-03-01T01:04:55;18.40;30.40
33564;DHT22;19894;48.452;11.494;2023-03-01T01:07:20;18.40;30.40
33564;DHT22;19894;48.452;11.494;2023-03-01T01:09:46;18.40;30.40
33564;DHT22;19894;48.452;11.494;2023-03-01T01:12:12;18.40;30.40
33564;DHT22;19894;48.452;11.494;2023-03-01T01:14:37;18.40;30.40
33564;DHT22;19894;48.452;11.494;2023-03-01T01:17:03;18.40;30.40
33564;DHT22;19894;48.452;11.494;2023-03-01T01:19:29;18.40;30.40
33564;DHT22;19894;48.452;11.494;2023-03-01T01:21:54;18.40;30.40
33564;DHT22;19894;48.452;11.494;2023-03-01T01:24:20;18.40;30.40
33564;DHT22;19894;48.452;11.494;2023-03-01T01:26:46;18.40;30.40
33564;DHT22;19894;48.452;11.494;2023-03-01T01:29:11;18.40;30.50
33564;DHT22;19894;48.452;11.494;2023-03-01T01:31:39;18.40;30.40
33564;DHT22;19894;48.452;11.494;2023-03-01T01:34:06;18.40;30.40
33564;DHT22;19894;48.452;11.494;2023-03-01T01:36:33;18.40;30.40
33564;DHT22;19894;48.452;11.494;2023-03-01T01:39:00;18.40;30.40
33564;DHT22;19894;48.452;11.494;2023-03-01T01:41:27;18.40;30.40
33564;DHT22;19894;48.452;11.494;2023-03-01T01:44:28;18.40;30.50
33564;DHT22;19894;48.452;11.494;2023-03-01T01:47:02;18.40;30.50
33564;DHT22;19894;48.452;11.494;2023-03-01T01:52:10;18.40;30.40
33564;DHT22;19894;48.452;11.494;2023-03-01T01:54:44;18.40;30.50
33564;DHT22;19894;48.452;11.494;2023-03-01T01:57:15;18.40;30.40
33564;DHT22;19894;48.452;11.494;2023-03-01T01:59:44;18.40;30.40
33564;DHT22;19894;48.452;11.494;2023-03-01T02:02:12;18.40;30.50
33564;DHT22;19894;48.452;11.494;2023-03-01T02:04:38;18.40;30.50
33564;DHT22;19894;48.452;11.494;2023-03-01T02:07:15;18.40;30.40
33564;DHT22;19894;48.452;11.494;2023-03-01T02:09:46;18.40;30.50
33564;DHT22;19894;48.452;11.494;2023-03-01T02:12:14;18.40;30.50
33564;DHT22;19894;48.452;11.494;2023-03-01T02:14:40;18.40;30.40
33564;DHT22;19894;48.452;11.494;2023-03-01T02:17:05;18.40;30.50
33564;DHT22;19894;48.452;11.494;2023-03-01T02:20:16;18.40;30.50
33564;DHT22;19894;48.452;11.494;2023-03-01T02:22:31;18.40;30.40
33564;DHT22;19894;48.452;11.494;2023-03-01T02:30:33;18.40;30.40
33564;DHT22;19894;48.452;11.494;2023-03-01T02:33:00;18.40;30.40
33564;DHT22;19894;48.452;11.494;2023-03-01T02:35:37;18.40;30.50
33564;DHT22;19894;48.452;11.494;2023-03-01T02:38:06;18.40;30.40
33564;DHT22;19894;48.452;11.494;2023-03-01T02:40:34;18.40;30.50
33564;DHT22;19894;48.452;11.494;2023-03-01T02:42:59;18.40;30.50
33564;DHT22;19894;48.452;11.494;2023-03-01T02:45:26;18.40;30.50
33564;DHT22;19894;48.452;11.494;2023-03-01T02:47:56;18.40;30.60
33564;DHT22;19894;48.452;11.494;2023-03-01T02:53:25;18.40;30.50
33564;DHT22;19894;48.452;11.494;2023-03-01T02:55:53;18.40;30.50
33564;DHT22;19894;48.452;11.494;2023-03-01T02:58:19;18.40;30.50
33564;DHT22;19894;48.452;11.494;2023-03-01T03:00:45;18.40;30.40
33564;DHT22;19894;48.452;11.494;2023-03-01T03:03:14;18.40;30.50
33564;DHT22;19894;48.452;11.494;2023-03-01T03:05:40;18.40;30.60
33564;DHT22;19894;48.452;11.494;2023-03-01T03:08:06;18.40;30.50
33564;DHT22;19894;48.452;11.494;2023-03-01T03:10:38;18.40;30.50
33564;DHT22;19894;48.452;11.494;2023-03-01T03:13:07;18.40;30.50
33564;DHT22;19894;48.452;11.494;2023-03-01T03:15:34;18.40;30.50
33564;DHT22;19894;48.452;11.494;2023-03-01T03:18:03;18.40;30.50
33564;DHT22;19894;48.452;11.494;2023-03-01T03:20:29;18.40;30.50
33564;DHT22;19894;48.452;11.494;2023-03-01T03:22:56;18.40;31.00
33564;DHT22;19894;48.452;11.494;2023-03-01T03:25:22;18.40;30.40
33564;DHT22;19894;48.452;11.494;2023-03-01T03:27:49;18.40;30.40
33564;DHT22;19894;48.452;11.494;2023-03-01T03:30:23;18.40;30.40
33564;DHT22;19894;48.452;11.494;2023-03-01T03:32:49;18.40;30.40
33564;DHT22;19894;48.452;11.494;2023-03-01T03:35:32;18.40;30.40
33564;DHT22;19894;48.452;11.494;2023-03-01T03:38:00;18.40;30.40
33564;DHT22;19894;48.452;11.494;2023-03-01T03:40:32;18.40;30.40
33564;DHT22;19894;48.452;11.494;2023-03-01T03:42:58;18.40;30.40
33564;DHT22;19894;48.452;11.494;2023-03-01T03:45:24;18.40;30.40
33564;DHT22;19894;48.452;11.494;2023-03-01T03:47:49;18.40;30.40
33564;DHT22;19894;48.452;11.494;2023-03-01T03:50:16;18.40;30.40
33564;DHT22;19894;48.452;11.494;2023-03-01T03:52:42;18.40;30.50
33564;DHT22;19894;48.452;11.494;2023-03-01T03:55:10;18.40;30.40
33564;DHT22;19894;48.452;11.494;2023-03-01T03:57:47;18.40;31.00
33564;DHT22;19894;48.452;11.494;2023-03-01T04:00:18;18.40;30.40
33564;DHT22;19894;48.452;11.494;2023-03-01T04:02:45;18.40;30.40
33564;DHT22;19894;48.452;11.494;2023-03-01T04:05:13;18.40;30.40
33564;DHT22;19894;48.452;11.494;2023-03-01T04:07:39;18.40;30.40
33564;DHT22;19894;48.452;11.494;2023-03-01T04:10:10;18.40;30.40
33564;DHT22;19894;48.452;11.494;2023-03-01T04:12:36;18.40;30.40
33564;DHT22;19894;48.452;11.494;2023-03-01T04:15:03;18.40;30.40
33564;DHT22;19894;48.452;11.494;2023-03-01T04:17:45;18.40;30.40
33564;DHT22;19894;48.452;11.494;2023-03-01T04:20:13;18.40;30.40
33564;DHT22;19894;48.452;11.494;2023-03-01T04:22:40;18.40;31.00
33564;DHT22;19894;48.452;11.494;2023-03-01T04:25:06;18.40;30.40
33564;DHT22;19894;48.452;11.494;2023-03-01T04:27:35;18.40;30.40
33564;DHT22;19894;48.452;11.494;2023-03-01T04:30:03;18.40;30.40
33564;DHT22;19894;48.452;11.494;2023-03-01T04:32:29;18.40;30.40
33564;DHT22;19894;48.452;11.494;2023-03-01T04:34:54;18.40;30.40
33564;DHT22;19894;48.452;11.494;2023-03-01T04:37:20;18.40;30.40
33564;DHT22;19894;48.452;11.494;2023-03-01T04:39:45;18.40;30.40
33564;DHT22;19894;48.452;11.494;2023-03-01T04:42:12;18.40;30.40
33564;DHT22;19894;48.452;11.494;2023-03-01T04:44:38;18.40;30.40
33564;DHT22;19894;48.452;11.494;2023-03-01T04:47:03;18.40;30.40
33564;DHT22;19894;48.452;11.494;2023-03-01T04:49:29;18.40;30.40
33564;DHT22;19894;48.452;11.494;2023-03-01T04:51:54;18.40;30.40
33564;DHT22;19894;48.452;11.494;2023-03-01T04:54:20;18.40;30.40
33564;DHT22;19894;48.452;11.494;2023-03-01T04:56:46;18.40;30.40
33564;DHT22;19894;48.452;11.494;2023-03-01T04:59:11;18.40;30.40
33564;DHT22;19894;48.452;11.494;2023-03-01T05:01:38;18.40;30.40
33564;DHT22;19894;48.452;11.494;2023-03-01T05:04:04;18.40;30.40
33564;DHT22;19894;48.452;11.494;2023-03-01T05:06:31;18.40;30.40
33564;DHT22;19894;48.452;11.494;2023-03-01T05:08:56;18.40;30.40
33564;DHT22;19894;48.452;11.494;2023-03-01T05:11:22;18.40;30.40
33564;DHT22;19894;48.452;11.494;2023-03-01T05:13:48;18.40;30.90
33564;DHT22;19894;48.452;11.494;2023-03-01T05:16:15;18.40;30.40
33564;DHT22;19894;48.452;11.494;2023-03-01T05:18:42;18.40;30.40
33564;DHT22;19894;48.452;11.494;2023-03-01T05:21:12;18.40;30.40
33564;DHT22;19894;48.452;11.494;2023-03-01T05:23:38;18.40;30.40
33564;DHT22;19894;48.452;11.494;2023-03-01T05:26:05;18.40;30.30
33564;DHT22;19894;48.452;11.494;2023-03-01T05:28:31;18.40;30.30
33564;DHT22;19894;48.452;11.494;2023-03-01T05:30:57;18.40;30.40
33564;DHT22;19894;48.452;11.494;2023-03-01T05:33:23;18.40;30.30
33564;DHT22;19894;48.452;11.494;2023-03-01T05:35:50;18.40;30.30
33564;DHT22;19894;48.452;11.494;2023-03-01T05:38:17;18.40;30.30
33564;DHT22;19894;48.452;11.494;2023-03-01T05:40:44;18.40;30.30
33564;DHT22;19894;48.452;11.494;2023-03-01T05:43:11;18.40;30.30
33564;DHT22;19894;48.452;11.494;2023-03-01T05:45:38;18.40;30.40
33564;DHT22;19894;48.452;11.494;2023-03-01T05:48:04;18.40;30.30
33564;DHT22;19894;48.452;11.494;2023-03-01T05:50:34;18.40;30.30
33564;DHT22;19894;48.452;11.494;2023-03-01T05:53:04;18.40;30.40
33564;DHT22;19894;48.452;11.494;2023-03-01T05:55:32;18.40;30.30
33564;DHT22;19894;48.452;11.494;2023-03-01T05:57:59;18.40;30.40
33564;DHT22;19894;48.452;11.494;2023-03-01T06:00:26;18.40;30.40
33564;DHT22;19894;48.452;11.494;2023-03-01T06:02:53;18.40;30.40
33564;DHT22;19894;48.452;11.494;2023-03-01T06:05:19;18.40;30.40
33564;DHT22;19894;48.452;11.494;2023-03-01T06:07:44;18.40;30.40
33564;DHT22;19894;48.452;11.494;2023-03-01T06:10:11;18.40;30.40
33564;DHT22;19894;48.452;11.494;2023-03-01T06:12:38;18.40;30.40
33564;DHT22;19894;48.452;11.494;2023-03-01T06:15:05;18.40;30.40
33564;DHT22;19894;48.452;11.494;2023-03-01T06:17:33;18.40;30.40
33564;DHT22;19894;48.452;11.494;2023-03-01T06:20:07;18.40;30.40
33564;DHT22;19894;48.452;11.494;2023-03-01T06:22:33;18.40;30.40
33564;DHT22;19894;48.452;11.494;2023-03-01T06:24:58;18.40;30.30
33564;DHT22;19894;48.452;11.494;2023-03-01T06:27:24;18.40;30.40
33564;DHT22;19894;48.452;11.494;2023-03-01T06:29:50;18.40;30.30
33564;DHT22;19894;48.452;11.494;2023-03-01T06:32:15;18.40;30.30
33564;DHT22;19894;48.452;11.494;2023-03-01T06:34:41;18.40;30.30
33564;DHT22;19894;48.452;11.494;2023-03-01T06:37:07;18.40;30.30
33564;DHT22;19894;48.452;11.494;2023-03-01T06:39:33;18.40;30.30
33564;DHT22;19894;48.452;11.494;2023-03-01T06:41:59;18.40;30.30
33564;DHT22;19894;48.452;11.494;2023-03-01T06:44:25;18.40;30.30
33564;DHT22;19894;48.452;11.494;2023-03-01T06:46:51;18.40;30.30
33564;DHT22;19894;48.452;11.494;2023-03-01T06:49:16;18.40;30.30
33564;DHT22;19894;48.452;11.494;2023-03-01T06:51:43;18.40;30.30
33564;DHT22;19894;48.452;11.494;2023-03-01T06:54:09;18.40;30.30
33564;DHT22;19894;48.452;11.494;2023-03-01T06:56:35;18.40;30.30
33564;DHT22;19894;48.452;11.494;2023-03-01T06:59:01;18.40;30.30
33564;DHT22;19894;48.452;11.494;2023-03-01T07:01:28;18.40;30.30
33564;DHT22;19894;48.452;11.494;2023-03-01T07:03:54;18.40;30.30
33564;DHT22;19894;48.452;11.494;2023-03-01T07:06:20;18.40;30.20
33564;DHT22;19894;48.452;11.494;2023-03-01T07:08:45;18.40;30.30
33564;DHT22;19894;48.452;11.494;2023-03-01T07:11:11;18.40;30.30
33564;DHT22;19894;48.452;11.494;2023-03-01T07:13:36;18.40;30.30
33564;DHT22;19894;48.452;11.494;2023-03-01T07:16:02;18.40;30.30
33564;DHT22;19894;48.452;11.494;2023-03-01T07:18:28;18.40;30.30
33564;DHT22;19894;48.452;11.494;2023-03-01T07:20:53;18.40;30.30
33564;DHT22;19894;48.452;11.494;2023-03-01T07:23:19;18.40;30.30
33564;DHT22;19894;48.452;11.494;2023-03-01T07:25:44;18.40;30.30
33564;DHT22;19894;48.452;11.494;2023-03-01T07:28:15;18.40;30.30
33564;DHT22;19894;48.452;11.494;2023-03-01T07:30:41;18.40;30.20
33564;DHT22;19894;48.452;11.494;2023-03-01T07:33:07;18.40;30.30
33564;DHT22;19894;48.452;11.494;2023-03-01T07:35:33;18.40;30.20
33564;DHT22;19894;48.452;11.494;2023-03-01T07:37:59;18.40;30.30
33564;DHT22;19894;48.452;11.494;2023-03-01T07:40:24;18.40;30.20
33564;DHT22;19894;48.452;11.494;2023-03-01T07:42:55;18.40;30.20
33564;DHT22;19894;48.452;11.494;2023-03-01T07:45:21;18.40;30.20
33564;DHT22;19894;48.452;11.494;2023-03-01T07:47:47;18.40;30.30
33564;DHT22;19894;48.452;11.494;2023-03-01T07:50:12;18.40;30.30
33564;DHT22;19894;48.452;11.494;2023-03-01T07:52:39;18.40;30.30
33564;DHT22;19894;48.452;11.494;2023-03-01T07:55:05;18.40;30.30
33564;DHT22;19894;48.452;11.494;2023-03-01T07:57:30;18.40;30.30
33564;DHT22;19894;48.452;11.494;2023-03-01T07:59:57;18.40;30.20
33564;DHT22;19894;48.452;11.494;2023-03-01T08:02:22;18.40;30.20
33564;DHT22;19894;48.452;11.494;2023-03-01T08:04:48;18.40;30.20
33564;DHT22;19894;48.452;11.494;2023-03-01T08:07:14;18.40;30.20
33564;DHT22;19894;48.452;11.494;2023-03-01T08:09:39;18.40;30.30
33564;DHT22;19894;48.452;11.494;2023-03-01T08:12:05;18.40;30.80
33564;DHT22;19894;48.452;11.494;2023-03-01T08:14:32;18.40;30.20
33564;DHT22;19894;48.452;11.494;2023-03-01T08:16:58;18.40;30.20
33564;DHT22;19894;48.452;11.494;2023-03-01T08:19:23;18.40;30.20
33564;DHT22;19894;48.452;11.494;2023-03-01T08:21:49;18.40;30.20
33564;DHT22;19894;48.452;11.494;2023-03-01T08:24:15;18.40;30.20
33564;DHT22;19894;48.452;11.494;2023-03-01T08:26:41;18.40;30.20
33564;DHT22;19894;48.452;11.494;2023-03-01T08:29:07;18.40;30.20
33564;DHT22;19894;48.452;11.494;2023-03-01T08:31:35;18.40;30.20
33564;DHT22;19894;48.452;11.494;2023-03-01T08:34:04;18.40;30.20
33564;DHT22;19894;48.452;11.494;2023-03-01T08:36:36;18.40;30.20
33564;DHT22;19894;48.452;11.494;2023-03-01T08:39:03;18.40;30.20
33564;DHT22;19894;48.452;11.494;2023-03-01T08:41:28;18.40;30.20
33564;DHT22;19894;48.452;11.494;2023-03-01T08:43:55;18.40;30.20
33564;DHT22;19894;48.452;11.494;2023-03-01T08:46:28;18.40;30.10
33564;DHT22;19894;48.452;11.494;2023-03-01T08:48:54;18.40;30.20
33564;DHT22;19894;48.452;11.494;2023-03-01T08:51:21;18.40;30.20
33564;DHT22;19894;48.452;11.494;2023-03-01T08:53:47;18.40;30.20
33564;DHT22;19894;48.452;11.494;2023-03-01T08:56:15;18.40;30.20
33564;DHT22;19894;48.452;11.494;2023-03-01T08:58:44;18.40;30.20
33564;DHT22;19894;48.452;11.494;2023-03-01T09:01:11;18.40;30.20
33564;DHT22;19894;48.452;11.494;2023-03-01T09:03:37;18.40;30.20
33564;DHT22;19894;48.452;11.494;2023-03-01T09:06:04;18.40;30.20
33564;DHT22;19894;48.452;11.494;2023-03-01T09:08:30;18.40;30.20
33564;DHT22;19894;48.452;11.494;2023-03-01T09:10:56;18.40;30.20
33564;DHT22;19894;48.452;11.494;2023-03-01T09:13:22;18.40;30.20
33564;DHT22;19894;48.452;11.494;2023-03-01T09:15:51;18.40;30.20
33564;DHT22;19894;48.452;11.494;2023-03-01T09:18:17;18.40;30.10
33564;DHT22;19894;48.452;11.494;2023-03-01T09:20:42;18.40;30.10
33564;DHT22;19894;48.452;11.494;2023-03-01T09:23:08;18.40;30.20
33564;DHT22;19894;48.452;11.494;2023-03-01T09:25:34;18.40;30.10
33564;DHT22;19894;48.452;11.494;2023-03-01T09:28:00;18.40;30.10
33564;DHT22;19894;48.452;11.494;2023-03-01T09:30:26;18.40;30.10
33564;DHT22;19894;48.452;11.494;2023-03-01T09:32:51;18.40;30.10
33564;DHT22;19894;48.452;11.494;2023-03-01T09:35:18;18.40;30.10
33564;DHT22;19894;48.452;11.494;2023-03-01T09:37:45;18.40;30.10
33564;DHT22;19894;48.452;11.494;2023-03-01T09:40:20;18.40;30.10
33564;DHT22;19894;48.452;11.494;2023-03-01T09:42:56;18.40;30.10
33564;DHT22;19894;48.452;11.494;2023-03-01T09:45:40;18.40;30.10
33564;DHT22;19894;48.452;11.494;2023-03-01T09:48:14;18.40;30.10
33564;DHT22;19894;48.452;11.494;2023-03-01T09:50:43;18.40;30.10
33564;DHT22;19894;48.452;11.494;2023-03-01T09:53:23;18.40;30.10
33564;DHT22;19894;48.452;11.494;2023-03-01T10:01:27;18.40;30.10
33564;DHT22;19894;48.452;11.494;2023-03-01T10:06:45;18.40;30.10
33564;DHT22;19894;48.452;11.494;2023-03-01T10:09:16;18.40;30.20
33564;DHT22;19894;48.452;11.494;2023-03-01T10:11:46;18.40;30.10
33564;DHT22;19894;48.452;11.494;2023-03-01T10:17:24;18.40;30.10
33564;DHT22;19894;48.452;11.494;2023-03-01T10:19:50;18.40;30.10
33564;DHT22;19894;48.452;11.494;2023-03-01T10:22:22;18.40;30.20
33564;DHT22;19894;48.452;11.494;2023-03-01T10:24:51;18.40;30.20
33564;DHT22;19894;48.452;11.494;2023-03-01T10:27:27;18.40;30.10
33564;DHT22;19894;48.452;11.494;2023-03-01T10:30:06;18.40;30.10
33564;DHT22;19894;48.452;11.494;2023-03-01T10:32:34;18.40;30.10
33564;DHT22;19894;48.452;11.494;2023-03-01T10:35:00;18.40;30.10
33564;DHT22;19894;48.452;11.494;2023-03-01T10:37:25;18.40;30.10
33564;DHT22;19894;48.452;11.494;2023-03-01T10:40:00;18.40;30.10
33564;DHT22;19894;48.452;11.494;2023-03-01T10:42:34;18.40;30.10
33564;DHT22;19894;48.452;11.494;2023-03-01T10:45:27;18.30;30.10
33564;DHT22;19894;48.452;11.494;2023-03-01T10:48:19;18.40;30.70
33564;DHT22;19894;48.452;11.494;2023-03-01T10:50:49;18.40;30.10
33564;DHT22;19894;48.452;11.494;2023-03-01T10:53:31;18.30;30.10
33564;DHT22;19894;48.452;11.494;2023-03-01T10:56:11;18.40;30.20
33564;DHT22;19894;48.452;11.494;2023-03-01T10:59:02;18.40;30.10
33564;DHT22;19894;48.452;11.494;2023-03-01T11:01:33;18.40;30.20
33564;DHT22;19894;48.452;11.494;2023-03-01T11:04:13;18.40;30.20
33564;DHT22;19894;48.452;11.494;2023-03-01T11:06:40;18.40;30.20
33564;DHT22;19894;48.452;11.494;2023-03-01T11:11:44;18.40;30.20
33564;DHT22;19894;48.452;11.494;2023-03-01T11:14:17;18.40;30.20
33564;DHT22;19894;48.452;11.494;2023-03-01T11:16:45;18.40;30.20
33564;DHT22;19894;48.452;11.494;2023-03-01T11:21:50;18.40;30.20
33564;DHT22;19894;48.452;11.494;2023-03-01T11:24:18;18.40;30.20
33564;DHT22;19894;48.452;11.494;2023-03-01T11:26:50;18.40;30.20
33564;DHT22;19894;48.452;11.494;2023-03-01T11:29:47;18.40;30.20
33564;DHT22;19894;48.452;11.494;2023-03-01T11:32:13;18.40;30.20
33564;DHT22;19894;48.452;11.494;2023-03-01T11:40:13;18.40;30.20
33564;DHT22;19894;48.452;11.494;2023-03-01T11:45:46;18.30;30.20
33564;DHT22;19894;48.452;11.494;2023-03-01T11:48:37;18.30;30.10
33564;DHT22;19894;48.452;11.494;2023-03-01T11:54:11;18.40;30.30
33564;DHT22;19894;48.452;11.494;2023-03-01T11:56:47;18.30;30.20
33564;DHT22;19894;48.452;11.494;2023-03-01T11:59:44;18.40;30.30
33564;DHT22;19894;48.452;11.494;2023-03-01T12:02:25;18.40;30.20
33564;DHT22;19894;48.452;11.494;2023-03-01T12:05:20;18.40;30.20
33564;DHT22;19894;48.452;11.494;2023-03-01T12:08:07;18.40;30.20
33564;DHT22;19894;48.452;11.494;2023-03-01T12:10:49;18.40;30.30
33564;DHT22;19894;48.452;11.494;2023-03-01T12:21:42;18.40;30.20
33564;DHT22;19894;48.452;11.494;2023-03-01T12:32:34;18.40;30.30
33564;DHT22;19894;48.452;11.494;2023-03-01T12:35:28;18.40;30.30
33564;DHT22;19894;48.452;11.494;2023-03-01T12:41:13;18.40;30.80
33564;DHT22;19894;48.452;11.494;2023-03-01T12:46:34;18.40;30.30
33564;DHT22;19894;48.452;11.494;2023-03-01T12:49:13;18.30;30.20
33564;DHT22;19894;48.452;11.494;2023-03-01T12:51:44;18.40;30.30
33564;DHT22;19894;48.452;11.494;2023-03-01T12:54:24;18.40;30.30
33564;DHT22;19894;48.452;11.494;2023-03-01T12:56:51;18.40;30.90
33564;DHT22;19894;48.452;11.494;2023-03-01T13:01:53;18.40;30.40
33564;DHT22;19894;48.452;11.494;2023-03-01T13:04:27;18.40;30.30
33564;DHT22;19894;48.452;11.494;2023-03-01T13:07:04;18.40;30.40
33564;DHT22;19894;48.452;11.494;2023-03-01T13:17:48;18.40;30.40
33564;DHT22;19894;48.452;11.494;2023-03-01T13:20:16;18.40;30.40
33564;DHT22;19894;48.452;11.494;2023-03-01T13:22:42;18.40;30.30
33564;DHT22;19894;48.452;11.494;2023-03-01T13:25:18;18.40;30.40
33564;DHT22;19894;48.452;11.494;2023-03-01T13:27:45;18.40;30.40
33564;DHT22;19894;48.452;11.494;2023-03-01T13:35:57;18.40;30.40
33564;DHT22;19894;48.452;11.494;2023-03-01T13:38:47;18.40;30.40
33564;DHT22;19894;48.452;11.494;2023-03-01T13:41:16;18.40;30.40
33564;DHT22;19894;48.452;11.494;2023-03-01T13:43:44;18.40;30.40
33564;DHT22;19894;48.452;11.494;2023-03-01T13:48:41;18.40;30.40
33564;DHT22;19894;48.452;11.494;2023-03-01T13:51:10;18.40;30.40
33564;DHT22;19894;48.452;11.494;2023-03-01T13:53:40;18.40;31.00
33564;DHT22;19894;48.452;11.494;2023-03-01T13:56:12;18.40;30.40
33564;DHT22;19894;48.452;11.494;2023-03-01T13:58:57;18.40;30.40
33564;DHT22;19894;48.452;11.494;2023-03-01T14:03:51;18.40;30.50
33564;DHT22;19894;48.452;11.494;2023-03-01T14:06:21;18.40;30.50
33564;DHT22;19894;48.452;11.494;2023-03-01T14:08:50;18.40;30.50
33564;DHT22;19894;48.452;11.494;2023-03-01T14:14:37;18.40;30.50
33564;DHT22;19894;48.452;11.494;2023-03-01T14:17:26;18.40;30.50
33564;DHT22;19894;48.452;11.494;2023-03-01T14:20:03;18.40;30.50
33564;DHT22;19894;48.452;11.494;2023-03-01T14:22:34;18.40;30.50
33564;DHT22;19894;48.452;11.494;2023-03-01T14:25:28;18.40;30.50
33564;DHT22;19894;48.452;11.494;2023-03-01T14:27:58;18.40;30.50
33564;DHT22;19894;48.452;11.494;2023-03-01T14:30:27;18.40;30.50
33564;DHT22;19894;48.452;11.494;2023-03-01T14:32:58;18.40;30.50
33564;DHT22;19894;48.452;11.494;2023-03-01T14:35:27;18.40;30.50
33564;DHT22;19894;48.452;11.494;2023-03-01T14:37:53;18.40;30.50
33564;DHT22;19894;48.452;11.494;2023-03-01T14:40:33;18.40;30.50
33564;DHT22;19894;48.452;11.494;2023-03-01T14:43:02;18.40;30.50
33564;DHT22;19894;48.452;11.494;2023-03-01T14:45:29;18.40;30.50
33564;DHT22;19894;48.452;11.494;2023-03-01T14:47:59;18.40;30.60
33564;DHT22;19894;48.452;11.494;2023-03-01T14:50:33;18.40;30.60
33564;DHT22;19894;48.452;11.494;2023-03-01T14:53:02;18.40;30.60
33564;DHT22;19894;48.452;11.494;2023-03-01T14:55:32;18.40;30.60
33564;DHT22;19894;48.452;11.494;2023-03-01T14:58:02;18.40;30.60
33564;DHT22;19894;48.452;11.494;2023-03-01T15:00:30;18.30;30.60
33564;DHT22;19894;48.452;11.494;2023-03-01T15:03:00;18.40;30.70
33564;DHT22;19894;48.452;11.494;2023-03-01T15:05:31;18.40;30.70
33564;DHT22;19894;48.452;11.494;2023-03-01T15:07:59;18.40;30.70
33564;DHT22;19894;48.452;11.494;2023-03-01T15:10:28;18.40;30.70
33564;DHT22;19894;48.452;11.494;2023-03-01T15:12:55;18.40;30.70
33564;DHT22;19894;48.452;11.494;2023-03-01T15:15:32;18.40;30.70
33564;DHT22;19894;48.452;11.494;2023-03-01T15:18:04;18.40;30.70
33564;DHT22;19894;48.452;11.494;2023-03-01T15:20:32;18.40;30.70
33564;DHT22;19894;48.452;11.494;2023-03-01T15:23:01;18.40;31.20
33564;DHT22;19894;48.452;11.494;2023-03-01T15:25:29;18.40;30.70
33564;DHT22;19894;48.452;11.494;2023-03-01T15:27:57;18.40;30.70
33564;DHT22;19894;48.452;11.494;2023-03-01T15:30:34;18.40;30.70
33564;DHT22;19894;48.452;11.494;2023-03-01T15:33:29;18.40;30.60
33564;DHT22;19894;48.452;11.494;2023-03-01T15:35:57;18.40;30.70
33564;DHT22;19894;48.452;11.494;2023-03-01T15:41:02;18.40;30.70
33564;DHT22;19894;48.452;11.494;2023-03-01T15:43:42;18.40;30.70
33564;DHT22;19894;48.452;11.494;2023-03-01T15:48:59;18.40;30.70
33564;DHT22;19894;48.452;11.494;2023-03-01T15:51:35;18.40;30.80
33564;DHT22;19894;48.452;11.494;2023-03-01T15:54:12;18.40;30.80
33564;DHT22;19894;48.452;11.494;2023-03-01T15:56:41;18.40;30.80
33564;DHT22;19894;48.452;11.494;2023-03-01T15:59:09;18.40;30.90
33564;DHT22;19894;48.452;11.494;2023-03-01T16:01:37;18.40;30.80
33564;DHT22;19894;48.452;11.494;2023-03-01T16:04:02;18.40;30.80
33564;DHT22;19894;48.452;11.494;2023-03-01T16:06:28;18.40;30.90
33564;DHT22;19894;48.452;11.494;2023-03-01T16:08:53;18.40;30.90
33564;DHT22;19894;48.452;11.494;2023-03-01T16:11:20;18.40;30.90
33564;DHT22;19894;48.452;11.494;2023-03-01T16:13:46;18.40;30.90
33564;DHT22;19894;48.452;11.494;2023-03-01T16:16:13;18.40;30.90
33564;DHT22;19894;48.452;11.494;2023-03-01T16:18:42;18.40;30.90
33564;DHT22;19894;48.452;11.494;2023-03-01T16:21:22;18.40;30.80
33564;DHT22;19894;48.452;11.494;2023-03-01T16:23:48;18.40;30.90
33564;DHT22;19894;48.452;11.494;2023-03-01T16:26:14;18.40;30.80
33564;DHT22;19894;48.452;11.494;2023-03-01T16:28:41;18.40;30.90
33564;DHT22;19894;48.452;11.494;2023-03-01T16:31:08;18.40;30.80
33564;DHT22;19894;48.452;11.494;2023-03-01T16:33:34;18.40;30.90
33564;DHT22;19894;48.452;11.494;2023-03-01T16:36:01;18.40;31.40
33564;DHT22;19894;48.452;11.494;2023-03-01T16:38:31;18.40;30.90
33564;DHT22;19894;48.452;11.494;2023-03-01T16:40:57;18.40;30.90
33564;DHT22;19894;48.452;11.494;2023-03-01T16:43:22;18.40;30.90
33564;DHT22;19894;48.452;11.494;2023-03-01T16:45:48;18.40;30.90
33564;DHT22;19894;48.452;11.494;2023-03-01T16:48:13;18.40;30.90
33564;DHT22;19894;48.452;11.494;2023-03-01T16:50:39;18.40;30.90
33564;DHT22;19894;48.452;11.494;2023-03-01T16:53:05;18.40;30.90
33564;DHT22;19894;48.452;11.494;2023-03-01T16:55:31;18.40;30.90
33564;DHT22;19894;48.452;11.494;2023-03-01T16:57:56;18.40;31.00
33564;DHT22;19894;48.452;11.494;2023-03-01T17:00:22;18.40;31.00